createdAt,value
2018-05-24T00:00:11.065Z,20.19
2018-05-24T00:05:13.154Z,19.99
2018-05-24T00:10:14.475Z,20.05
2018-05-24T00:15:15.788Z,19.97
2018-05-24T00:20:17.147Z,19.90
2018-05-24T00:25:18.463Z,19.93
2018-05-24T00:30:19.774Z,19.80
2018-05-24T00:35:21.082Z,19.59
2018-05-24T00:40:22.421Z,19.65
2018-05-24T00:45:23.729Z,19.55
2018-05-24T00:50:25.047Z,19.47
2018-05-24T00:55:45.268Z,19.31
2018-05-24T01:00:46.590Z,19.32
2018-05-24T01:05:48.644Z,19.28
2018-05-24T01:10:50.634Z,19.29
2018-05-24T01:15:52.076Z,19.13
2018-05-24T01:20:53.290Z,19.07
2018-05-24T01:25:54.594Z,19.12
2018-05-24T01:30:55.916Z,18.96
2018-05-24T01:35:57.201Z,18.94
2018-05-24T01:40:58.529Z,18.96
2018-05-24T01:46:00.566Z,18.94
2018-05-24T01:51:01.902Z,18.76
2018-05-24T01:56:03.214Z,18.73
2018-05-24T02:01:05.251Z,18.66
2018-05-24T02:06:06.554Z,18.45
2018-05-24T02:11:07.845Z,18.41
2018-05-24T02:16:09.130Z,18.51
2018-05-24T02:21:10.433Z,18.46
2018-05-24T02:26:11.737Z,18.21
2018-05-24T02:31:13.039Z,17.98
2018-05-24T02:36:14.362Z,18.17
2018-05-24T02:41:15.710Z,18.00
2018-05-24T02:46:17.004Z,17.88
2018-05-24T02:51:18.341Z,17.75
2018-05-24T02:56:19.659Z,17.93
2018-05-24T03:01:22.176Z,17.79
2018-05-24T03:06:23.579Z,17.59
2018-05-24T03:11:24.906Z,17.59
2018-05-24T03:16:26.971Z,17.68
2018-05-24T03:21:28.688Z,17.57
2018-05-24T03:26:31.006Z,17.63
2018-05-24T03:31:32.548Z,17.63
2018-05-24T03:36:33.858Z,17.54
2018-05-24T03:41:35.158Z,17.72
2018-05-24T03:46:36.478Z,17.71
2018-05-24T03:51:38.519Z,17.83
2018-05-24T03:56:39.830Z,17.68
2018-05-24T04:01:59.796Z,17.86
2018-05-24T04:07:01.102Z,17.79
2018-05-24T04:12:02.543Z,17.76
2018-05-24T04:17:04.611Z,17.78
2018-05-24T04:22:05.964Z,17.79
2018-05-24T04:27:12.161Z,17.69
2018-05-24T04:32:14.019Z,17.92
2018-05-24T04:37:15.836Z,18.23
2018-05-24T04:42:17.293Z,18.25
2018-05-24T04:47:18.611Z,18.35
2018-05-24T04:52:20.085Z,18.27
2018-05-24T04:57:21.406Z,18.35
2018-05-24T05:02:22.828Z,18.43
2018-05-24T05:07:24.154Z,18.33
2018-05-24T05:12:25.464Z,18.44
2018-05-24T05:17:26.794Z,18.47
2018-05-24T05:22:28.088Z,18.71
2018-05-24T05:27:29.620Z,18.90
2018-05-24T05:32:30.946Z,19.19
2018-05-24T05:37:32.312Z,19.37
2018-05-24T05:42:34.378Z,19.43
2018-05-24T05:47:35.679Z,19.58
2018-05-24T05:52:37.733Z,19.52
2018-05-24T05:57:39.021Z,19.30
2018-05-24T06:02:40.372Z,19.19
2018-05-24T06:07:41.685Z,19.62
2018-05-24T06:12:42.993Z,19.77
2018-05-24T06:17:44.311Z,19.69
2018-05-24T06:22:46.338Z,19.53
2018-05-24T06:27:48.365Z,19.66
2018-05-24T06:32:49.678Z,19.92
2018-05-24T06:37:50.970Z,20.44
2018-05-24T06:42:52.280Z,20.42
2018-05-24T06:47:54.346Z,20.45
2018-05-24T06:52:55.657Z,19.96
2018-05-24T06:57:56.959Z,19.92
2018-05-24T07:02:58.253Z,20.23
2018-05-24T07:07:59.614Z,20.75
2018-05-24T07:13:00.925Z,20.90
2018-05-24T07:18:02.386Z,21.13
2018-05-24T07:23:03.945Z,21.21
2018-05-24T07:28:05.314Z,21.70
2018-05-24T07:33:06.685Z,21.69
2018-05-24T07:38:08.066Z,21.73
2018-05-24T07:43:09.421Z,22.08
2018-05-24T07:48:10.770Z,21.84
2018-05-24T07:53:12.090Z,22.28
2018-05-24T07:58:13.428Z,22.64
2018-05-24T08:03:14.762Z,22.82
2018-05-24T08:08:16.086Z,22.76
2018-05-24T08:13:17.377Z,22.78
2018-05-24T08:18:18.665Z,23.12
2018-05-24T08:23:19.975Z,23.39
2018-05-24T08:28:21.307Z,23.15
2018-05-24T08:33:23.508Z,24.25
2018-05-24T08:38:24.871Z,24.18
2018-05-24T08:43:26.213Z,24.38
2018-05-24T08:48:27.522Z,24.47
2018-05-24T08:53:28.892Z,24.34
2018-05-24T08:58:30.152Z,24.31
2018-05-24T09:03:32.205Z,23.96
2018-05-24T09:08:33.501Z,24.03
2018-05-24T09:13:34.832Z,24.37
2018-05-24T09:18:36.860Z,24.48
2018-05-24T09:23:38.419Z,25.11
2018-05-24T09:28:39.861Z,25.11
2018-05-24T09:33:41.865Z,24.82
2018-05-24T09:38:43.332Z,25.05
2018-05-24T09:43:45.353Z,25.58
2018-05-24T09:48:46.790Z,25.87
2018-05-24T09:53:48.297Z,26.12
2018-05-24T09:58:50.417Z,26.12
2018-05-24T10:03:52.628Z,26.51
2018-05-24T10:08:54.836Z,26.85
2018-05-24T10:13:56.169Z,26.92
2018-05-24T10:18:57.477Z,27.60
2018-05-24T10:23:58.781Z,27.69
2018-05-24T10:29:00.088Z,27.20
2018-05-24T10:34:01.468Z,27.13
2018-05-24T10:39:02.843Z,27.09
2018-05-24T10:44:04.181Z,26.59
2018-05-24T10:49:05.484Z,26.47
2018-05-24T10:54:06.843Z,26.79
2018-05-24T10:59:08.494Z,26.84
2018-05-24T11:04:09.825Z,26.80
2018-05-24T11:09:11.164Z,26.98
2018-05-24T11:14:12.476Z,26.84
2018-05-24T11:19:13.815Z,27.01
2018-05-24T11:24:15.124Z,27.06
2018-05-24T11:29:16.462Z,26.87
2018-05-24T11:34:17.762Z,26.89
2018-05-24T11:39:19.809Z,27.13
2018-05-24T11:44:21.109Z,27.73
2018-05-24T11:49:22.461Z,27.95
2018-05-24T11:54:31.477Z,28.33
2018-05-24T11:59:32.785Z,28.19
2018-05-24T12:04:34.070Z,28.24
2018-05-24T12:09:35.369Z,28.18
2018-05-24T12:14:36.705Z,28.94
2018-05-24T12:19:38.091Z,29.17
2018-05-24T12:24:39.442Z,29.21
2018-05-24T12:29:40.800Z,29.37
2018-05-24T12:34:42.122Z,29.39
2018-05-24T12:39:43.441Z,29.21
2018-05-24T12:44:44.794Z,29.21
2018-05-24T12:49:46.138Z,29.31
2018-05-24T12:54:47.517Z,29.18
2018-05-24T12:59:48.821Z,28.73
2018-05-24T13:04:50.174Z,28.43
2018-05-24T13:09:52.289Z,28.32
2018-05-24T13:14:53.624Z,27.95
2018-05-24T13:19:54.927Z,28.09
2018-05-24T13:24:56.236Z,27.91
2018-05-24T13:29:57.567Z,28.13
2018-05-24T13:34:58.869Z,28.37
2018-05-24T13:40:00.179Z,28.47
2018-05-24T13:45:01.592Z,28.62
2018-05-24T13:50:02.945Z,28.76
2018-05-24T13:55:04.252Z,28.61
2018-05-24T14:00:05.673Z,28.64
2018-05-24T14:05:07.728Z,28.61
2018-05-24T14:10:09.167Z,28.83
2018-05-24T14:15:10.530Z,29.03
2018-05-24T14:20:12.908Z,29.17
2018-05-24T14:25:14.241Z,29.32
2018-05-24T14:30:16.121Z,29.53
2018-05-24T14:35:17.466Z,29.66
2018-05-24T14:40:19.508Z,29.59
2018-05-24T14:45:20.836Z,29.90
2018-05-24T14:50:22.165Z,30.19
2018-05-24T14:55:23.474Z,30.60
2018-05-24T15:00:24.777Z,29.69
2018-05-24T15:05:26.120Z,29.73
2018-05-24T15:10:27.385Z,30.02
2018-05-24T15:15:28.689Z,30.26
2018-05-24T15:20:30.725Z,30.45
2018-05-24T15:25:32.070Z,30.82
2018-05-24T15:30:33.383Z,30.75
2018-05-24T15:35:35.452Z,30.54
2018-05-24T15:40:36.831Z,30.01
2018-05-24T15:45:38.174Z,29.28
2018-05-24T15:50:39.514Z,29.12
2018-05-24T15:55:40.862Z,29.04
2018-05-24T16:00:42.217Z,28.99
2018-05-24T16:05:44.301Z,28.97
2018-05-24T16:10:45.633Z,29.18
2018-05-24T16:15:47.689Z,29.46
2018-05-24T16:20:48.993Z,29.54
2018-05-24T16:25:50.298Z,29.48
2018-05-24T16:30:51.641Z,29.53
2018-05-24T16:35:53.133Z,29.54
2018-05-24T16:40:54.479Z,29.43
2018-05-24T16:45:56.617Z,29.34
2018-05-24T16:50:57.905Z,29.29
2018-05-24T16:55:59.221Z,29.22
2018-05-24T17:01:00.559Z,29.04
2018-05-24T17:06:01.983Z,28.93
2018-05-24T17:11:03.354Z,28.89
2018-05-24T17:16:04.710Z,28.73
2018-05-24T17:21:06.073Z,28.21
2018-05-24T17:26:07.414Z,28.01
2018-05-24T17:31:08.731Z,27.77
2018-05-24T17:36:10.080Z,27.46
2018-05-24T17:41:13.014Z,27.28
2018-05-24T17:46:14.350Z,27.28
2018-05-24T17:51:15.673Z,26.96
2018-05-24T17:56:17.006Z,27.06
2018-05-24T18:01:18.402Z,27.00
2018-05-24T18:06:19.780Z,26.97
2018-05-24T18:11:21.101Z,26.84
2018-05-24T18:16:22.442Z,26.57
2018-05-24T18:21:23.777Z,26.50
2018-05-24T18:26:25.087Z,26.22
2018-05-24T18:31:26.460Z,26.16
2018-05-24T18:36:27.822Z,26.04
2018-05-24T18:41:29.113Z,25.77
2018-05-24T18:46:30.470Z,25.68
2018-05-24T18:51:32.504Z,25.54
2018-05-24T18:56:34.125Z,25.33
2018-05-24T19:01:35.457Z,25.34
2018-05-24T19:06:36.770Z,25.18
2018-05-24T19:11:38.192Z,25.17
2018-05-24T19:16:39.497Z,25.20
2018-05-24T19:21:40.837Z,25.13
2018-05-24T19:26:42.176Z,25.09
2018-05-24T19:31:43.529Z,24.86
2018-05-24T19:36:44.844Z,24.89
2018-05-24T19:41:46.145Z,24.79
2018-05-24T19:46:47.469Z,24.56
2018-05-24T19:51:49.603Z,24.45
2018-05-24T19:56:50.949Z,24.37
2018-05-24T20:01:52.300Z,24.27
2018-05-24T20:06:53.637Z,24.29
2018-05-24T20:11:54.996Z,24.21
2018-05-24T20:16:56.328Z,24.17
2018-05-24T20:21:58.402Z,24.12
2018-05-24T20:26:59.918Z,24.10
2018-05-24T20:32:01.458Z,24.07
2018-05-24T20:37:02.778Z,24.08
2018-05-24T20:42:04.134Z,24.09
2018-05-24T20:47:06.393Z,24.15
2018-05-24T20:52:07.765Z,24.38
2018-05-24T20:57:09.094Z,24.47
2018-05-24T21:02:11.159Z,24.48
2018-05-24T21:07:12.492Z,24.44
2018-05-24T21:12:14.557Z,24.42
2018-05-24T21:17:15.869Z,24.37
2018-05-24T21:22:17.209Z,24.13
2018-05-24T21:27:18.517Z,24.02
2018-05-24T21:32:19.833Z,23.81
2018-05-24T21:37:21.231Z,23.78
2018-05-24T21:42:23.289Z,23.83
2018-05-24T21:47:24.602Z,23.90
2018-05-24T21:52:25.955Z,23.86
2018-05-24T21:57:27.284Z,23.77
2018-05-24T22:02:28.614Z,23.79
2018-05-24T22:07:30.738Z,23.82
2018-05-24T22:12:32.017Z,23.88
2018-05-24T22:17:33.336Z,23.87
2018-05-24T22:22:34.642Z,23.82
2018-05-24T22:27:35.955Z,23.78
2018-05-24T22:32:37.266Z,23.73
2018-05-24T22:37:39.320Z,23.70
2018-05-24T22:42:40.695Z,23.64
2018-05-24T22:47:41.977Z,23.58
2018-05-24T22:52:43.304Z,23.56
2018-05-24T22:57:44.622Z,23.62
2018-05-24T23:02:46.690Z,23.59
2018-05-24T23:07:48.053Z,23.46
2018-05-24T23:12:49.374Z,23.36
2018-05-24T23:17:50.681Z,22.98
2018-05-24T23:22:51.993Z,22.84
2018-05-24T23:27:54.038Z,22.70
2018-05-24T23:32:55.373Z,22.56
2018-05-24T23:37:56.675Z,22.48
2018-05-24T23:42:58.750Z,22.41
2018-05-24T23:48:00.071Z,22.43
2018-05-24T23:53:02.108Z,22.37
2018-05-24T23:58:03.420Z,22.35
